Time;durP1;ratioP1;P1;durP2;ratioP2;P2;SDS_P1;SDS_P2;PMS_P1;PMS_P2;Temp;Humidity;BMP_temperature;BMP_pressure;BME280_temperature;BME280_humidity;BME280_pressure;Samples;Min_cycle;Max_cycle;Signal;HPM_P1;HPM_P2
2021/12/09 00:00:52;;;;;;;9.97;3.83;;;3.40;95.90;;;;;;5035822;28;20101;-73
2021/12/09 00:03:19;;;;;;;;;;;3.40;95.90;;;;;;5036410;28;20056;-74
2021/12/09 00:05:46;;;;;;;9.80;4.33;;;3.40;96.10;;;;;;5022898;28;19994;-74
2021/12/09 00:08:13;;;;;;;13.33;4.20;;;3.40;96.20;;;;;;5037777;28;20117;-74
2021/12/09 00:10:40;;;;;;;16.67;4.60;;;3.40;96.20;;;;;;5037820;28;20515;-73
2021/12/09 00:13:06;;;;;;;9.27;3.73;;;3.40;96.20;;;;;;5021204;28;20049;-73
2021/12/09 00:15:33;;;;;;;12.53;3.80;;;3.40;96.20;;;;;;5055173;28;20025;-73
2021/12/09 00:17:59;;;;;;;8.90;3.37;;;3.40;96.20;;;;;;5055402;28;20152;-73
2021/12/09 00:20:24;;;;;;;11.77;4.73;;;3.30;96.20;;;;;;5020794;28;20053;-74
2021/12/09 00:22:50;;;;;;;9.70;4.10;;;3.20;96.20;;;;;;5036377;28;20025;-73
2021/12/09 00:25:16;;;;;;;13.10;5.60;;;3.30;96.30;;;;;;5055272;28;20032;-73
2021/12/09 00:27:43;;;;;;;15.13;4.33;;;3.30;96.30;;;;;;5037496;28;20029;-73
2021/12/09 00:30:11;;;;;;;8.40;3.73;;;3.30;96.30;;;;;;5037139;28;20021;-73
2021/12/09 00:32:38;;;;;;;8.33;4.50;;;3.30;96.30;;;;;;5037164;28;20357;-73
2021/12/09 00:35:05;;;;;;;10.87;4.27;;;3.30;96.40;;;;;;5037076;28;20029;-73
2021/12/09 00:37:40;;;;;;;15.93;4.80;;;3.30;96.50;;;;;;5037203;28;20033;-73
2021/12/09 00:40:08;;;;;;;8.67;3.97;;;3.30;96.40;;;;;;5027011;28;20034;-73
2021/12/09 00:42:34;;;;;;;9.70;4.33;;;3.30;96.40;;;;;;5035035;28;20040;-74
2021/12/09 00:45:00;;;;;;;11.80;4.53;;;3.30;96.60;;;;;;5034940;28;20025;-74
2021/12/09 00:47:26;;;;;;;9.97;4.27;;;3.30;96.60;;;;;;5034800;28;20492;-72
2021/12/09 00:49:55;;;;;;;12.47;4.03;;;3.20;96.60;;;;;;5017204;28;20517;-78
2021/12/09 00:52:24;;;;;;;16.40;5.03;;;3.20;96.60;;;;;;5017367;28;20108;-78
2021/12/09 00:54:51;;;;;;;9.47;4.63;;;3.20;96.70;;;;;;5025997;28;20021;-77
2021/12/09 00:57:18;;;;;;;11.73;4.27;;;3.20;96.70;;;;;;5054256;28;20052;-78
2021/12/09 00:59:43;;;;;;;12.37;4.20;;;3.30;96.60;;;;;;5054257;28;20017;-78
2021/12/09 01:02:10;;;;;;;9.80;4.50;;;3.20;96.50;;;;;;5054316;28;20032;-78
2021/12/09 01:04:37;;;;;;;11.03;4.07;;;3.20;96.60;;;;;;5020039;28;20059;-78
2021/12/09 01:07:03;;;;;;;17.37;4.30;;;3.10;96.60;;;;;;5036278;28;20100;-78
2021/12/09 01:09:29;;;;;;;8.93;4.27;;;3.20;96.60;;;;;;5019884;28;20025;-77
2021/12/09 01:11:55;;;;;;;10.63;4.03;;;3.10;96.50;;;;;;5036331;28;20116;-78
2021/12/09 01:14:21;;;;;;;9.60;4.07;;;3.10;96.90;;;;;;5036278;28;20095;-78
2021/12/09 01:16:46;;;;;;;9.63;3.80;;;3.10;96.70;;;;;;5036787;28;20064;-77
2021/12/09 01:19:12;;;;;;;13.60;4.50;;;3.10;96.70;;;;;;5054338;28;20099;-78
2021/12/09 01:21:38;;;;;;;12.67;4.27;;;3.10;96.80;;;;;;5036251;28;20021;-77
2021/12/09 01:24:04;;;;;;;8.27;4.17;;;3.10;96.80;;;;;;5036229;28;20021;-77
2021/12/09 01:26:30;;;;;;;11.83;4.37;;;3.10;96.70;;;;;;5053826;28;20028;-77
2021/12/09 01:29:01;;;;;;;13.20;4.00;;;3.10;96.70;;;;;;5019986;28;20035;-77
2021/12/09 01:31:35;;;;;;;17.73;5.30;;;3.10;96.70;;;;;;5053705;28;20040;-77
2021/12/09 01:34:03;;;;;;;11.68;4.00;;;3.00;96.70;;;;;;5053795;28;20029;-77
2021/12/09 01:36:30;;;;;;;11.63;4.37;;;3.00;96.80;;;;;;5019971;28;20136;-77
2021/12/09 01:38:56;;;;;;;8.93;4.10;;;3.00;96.80;;;;;;5046062;28;20045;-77
2021/12/09 01:41:21;;;;;;;9.63;4.60;;;3.00;96.70;;;;;;5033758;28;20030;-77
2021/12/09 01:43:48;;;;;;;10.23;4.03;;;3.00;96.70;;;;;;5016501;28;20026;-78
2021/12/09 01:46:15;;;;;;;11.83;4.33;;;3.00;96.70;;;;;;5033585;28;20500;-78
2021/12/09 01:48:44;;;;;;;13.27;4.90;;;2.90;96.70;;;;;;5033360;28;20504;-78
2021/12/09 01:51:10;;;;;;;8.20;4.07;;;3.00;96.80;;;;;;5033451;28;20030;-77
2021/12/09 01:53:36;;;;;;;10.90;4.20;;;3.00;96.80;;;;;;5033410;28;20090;-76
2021/12/09 01:56:05;;;;;;;9.70;4.13;;;2.90;96.80;;;;;;5015925;28;20033;-77
2021/12/09 01:58:31;;;;;;;12.13;3.77;;;2.90;96.90;;;;;;5033492;28;20119;-76
2021/12/09 02:00:57;;;;;;;12.23;4.53;;;2.90;96.90;;;;;;5015986;28;20080;-73
2021/12/09 02:03:22;;;;;;;9.93;4.20;;;3.00;97.10;;;;;;5045813;28;20048;-74
2021/12/09 02:05:48;;;;;;;10.67;3.87;;;3.00;97.10;;;;;;5035972;28;20120;-73
2021/12/09 02:08:18;;;;;;;7.70;3.93;;;3.00;97.20;;;;;;5035837;28;20037;-73
2021/12/09 02:10:45;;;;;;;14.90;4.70;;;3.00;97.20;;;;;;5053030;28;20055;-74
2021/12/09 02:13:12;;;;;;;11.07;4.30;;;3.00;97.20;;;;;;5053268;28;20052;-74
2021/12/09 02:15:40;;;;;;;8.20;3.90;;;3.00;97.10;;;;;;5053410;28;20064;-73
2021/12/09 02:18:11;;;;;;;10.67;4.00;;;3.00;97.20;;;;;;5044550;28;20444;-74
2021/12/09 02:20:38;;;;;;;10.40;4.73;;;3.10;97.20;;;;;;5057518;28;20056;-73
2021/12/09 02:23:09;;;;;;;13.00;4.20;;;3.10;97.30;;;;;;5057319;28;20036;-73
2021/12/09 02:25:44;;;;;;;10.57;4.40;;;3.10;97.20;;;;;;5057372;28;20024;-73
2021/12/09 02:28:14;;;;;;;8.90;3.83;;;3.10;97.20;;;;;;5057595;28;20028;-73
2021/12/09 02:30:41;;;;;;;11.43;4.77;;;3.10;97.10;;;;;;5039535;28;20519;-73
2021/12/09 02:33:07;;;;;;;11.70;4.20;;;3.00;97.10;;;;;;5039681;28;20034;-73
2021/12/09 02:35:32;;;;;;;11.60;4.37;;;3.00;97.10;;;;;;5037071;28;20083;-73
2021/12/09 02:37:58;;;;;;;17.73;5.37;;;3.00;97.10;;;;;;5019673;28;20041;-73
2021/12/09 02:40:24;;;;;;;12.13;4.53;;;3.00;97.10;;;;;;5037345;28;20053;-73
2021/12/09 02:42:49;;;;;;;11.70;4.50;;;2.90;97.00;;;;;;5036959;28;20423;-72
2021/12/09 02:45:15;;;;;;;10.53;4.30;;;3.00;97.00;;;;;;5036889;28;20037;-73
2021/12/09 02:47:41;;;;;;;11.77;4.33;;;2.90;97.00;;;;;;5055115;28;20044;-73
2021/12/09 02:50:08;;;;;;;10.50;4.90;;;2.90;97.00;;;;;;5057037;28;20044;-73
2021/12/09 02:52:33;;;;;;;12.03;4.10;;;2.80;97.00;;;;;;5022456;28;20459;-73
2021/12/09 02:54:59;;;;;;;11.20;4.40;;;2.80;97.00;;;;;;5020405;28;20068;-73
2021/12/09 02:57:25;;;;;;;15.63;4.60;;;2.80;97.00;;;;;;5018964;28;20037;-74
2021/12/09 02:59:51;;;;;;;13.80;4.00;;;2.80;97.00;;;;;;5018991;28;20029;-74
2021/12/09 03:02:19;;;;;;;14.43;4.30;;;2.80;97.00;;;;;;5018986;28;20430;-73
2021/12/09 03:04:49;;;;;;;15.50;4.60;;;2.80;97.00;;;;;;5036979;28;20026;-73
2021/12/09 03:07:23;;;;;;;11.70;4.00;;;2.70;97.10;;;;;;5036667;28;20436;-74
2021/12/09 03:09:55;;;;;;;12.27;4.13;;;2.70;97.00;;;;;;5036620;28;20037;-77
2021/12/09 03:12:25;;;;;;;13.73;4.27;;;2.70;97.10;;;;;;5003357;28;20021;-77
2021/12/09 03:14:51;;;;;;;8.60;3.87;;;2.70;97.10;;;;;;5036321;28;20095;-78
2021/12/09 03:17:18;;;;;;;13.13;4.57;;;2.80;97.20;;;;;;5036545;28;20029;-77
2021/12/09 03:19:44;;;;;;;11.30;4.13;;;2.70;97.10;;;;;;5036230;28;20505;-77
2021/12/09 03:22:11;;;;;;;10.87;4.33;;;2.60;97.10;;;;;;5036175;28;20013;-77
2021/12/09 03:24:37;;;;;;;12.63;3.73;;;2.60;97.10;;;;;;5036179;28;20029;-77
2021/12/09 03:27:03;;;;;;;8.43;3.80;;;2.60;97.10;;;;;;5018554;28;20032;-77
2021/12/09 03:29:29;;;;;;;11.53;4.50;;;2.60;97.10;;;;;;5035756;28;20038;-76
2021/12/09 03:31:58;;;;;;;10.40;3.93;;;2.50;97.00;;;;;;5036105;28;20057;-77
2021/12/09 03:34:27;;;;;;;14.33;4.43;;;2.50;97.10;;;;;;5035990;28;20087;-77
2021/12/09 03:36:53;;;;;;;10.37;4.10;;;2.50;97.10;;;;;;5036435;28;20033;-78
2021/12/09 03:39:21;;;;;;;10.17;4.67;;;2.50;97.20;;;;;;5036668;28;20465;-77
2021/12/09 03:41:51;;;;;;;12.77;4.50;;;2.50;97.20;;;;;;5036151;28;20049;-77
2021/12/09 03:44:17;;;;;;;11.73;4.57;;;2.40;97.20;;;;;;5018493;28;20381;-76
2021/12/09 03:46:44;;;;;;;11.17;3.93;;;2.40;97.20;;;;;;5018001;28;20041;-77
2021/12/09 03:49:10;;;;;;;11.97;4.30;;;2.30;97.20;;;;;;5035807;28;20040;-77
2021/12/09 03:51:36;;;;;;;15.23;4.53;;;2.30;97.30;;;;;;5035671;28;20380;-72
2021/12/09 03:54:10;;;;;;;9.13;3.80;;;2.30;97.30;;;;;;5018355;28;20029;-72
2021/12/09 03:56:36;;;;;;;;;;;2.30;97.30;;;;;;5036016;28;20018;-73
2021/12/09 03:59:02;;;;;;;7.67;3.60;;;2.30;97.30;;;;;;5018081;28;19924;-72
2021/12/09 04:01:28;;;;;;;11.80;4.60;;;2.20;97.50;;;;;;5035560;28;20038;-74
2021/12/09 04:03:55;;;;;;;12.13;4.13;;;2.20;97.30;;;;;;5018310;28;20473;-72
2021/12/09 04:06:21;;;;;;;11.30;3.93;;;2.20;97.30;;;;;;5001868;28;20037;-73
2021/12/09 04:08:48;;;;;;;14.43;4.97;;;2.20;97.40;;;;;;5018211;28;20029;-72
2021/12/09 04:11:15;;;;;;;9.03;3.97;;;2.20;97.40;;;;;;5015545;28;20030;-72
2021/12/09 04:13:41;;;;;;;16.20;4.77;;;2.10;97.40;;;;;;5015286;28;20046;-72
2021/12/09 04:16:07;;;;;;;9.40;4.80;;;2.20;97.50;;;;;;5016172;28;20039;-72
2021/12/09 04:18:35;;;;;;;11.43;4.33;;;2.20;97.60;;;;;;5037102;28;20465;-72
2021/12/09 04:21:01;;;;;;;9.03;4.17;;;2.10;97.50;;;;;;5055074;28;20025;-72
2021/12/09 04:23:27;;;;;;;15.17;4.80;;;2.20;97.60;;;;;;5055130;28;20119;-72
2021/12/09 04:25:53;;;;;;;11.70;3.80;;;2.20;97.70;;;;;;5055122;28;20098;-72
2021/12/09 04:28:19;;;;;;;13.73;4.93;;;2.20;97.60;;;;;;5055095;28;20037;-73
2021/12/09 04:30:45;;;;;;;13.63;4.90;;;2.10;97.80;;;;;;5044544;28;20032;-72
2021/12/09 04:33:11;;;;;;;13.27;4.50;;;2.20;97.80;;;;;;5017746;28;20416;-72
2021/12/09 04:35:36;;;;;;;12.03;4.53;;;2.20;97.80;;;;;;5023757;28;20079;-72
2021/12/09 04:38:02;;;;;;;9.40;4.50;;;2.10;97.80;;;;;;5054632;28;20029;-73
2021/12/09 04:40:28;;;;;;;11.73;4.23;;;2.10;97.90;;;;;;5054146;28;20112;-73
2021/12/09 04:42:53;;;;;;;12.07;4.37;;;2.10;97.90;;;;;;5036831;28;20040;-73
2021/12/09 04:45:19;;;;;;;8.57;4.53;;;2.10;97.90;;;;;;5009883;28;20171;-73
2021/12/09 04:47:45;;;;;;;12.43;4.40;;;2.10;97.90;;;;;;5000845;28;20478;-73
2021/12/09 04:50:11;;;;;;;10.13;4.30;;;2.10;97.90;;;;;;5017433;28;20489;-73
2021/12/09 04:52:37;;;;;;;10.80;4.57;;;2.10;97.90;;;;;;5034574;28;20394;-72
2021/12/09 04:55:05;;;;;;;12.07;4.03;;;2.10;98.00;;;;;;5017153;28;20025;-72
2021/12/09 04:57:31;;;;;;;11.27;4.50;;;2.10;98.00;;;;;;5034780;28;20078;-73
2021/12/09 04:59:56;;;;;;;10.97;4.20;;;2.10;98.10;;;;;;5016896;28;20112;-72
2021/12/09 05:02:38;;;;;;;9.10;4.10;;;2.10;98.00;;;;;;5034688;28;20033;-72
2021/12/09 05:05:04;;;;;;;13.07;4.07;;;2.10;98.00;;;;;;5034376;28;20037;-72
2021/12/09 05:07:30;;;;;;;14.07;5.50;;;2.10;98.00;;;;;;5034543;28;20048;-72
2021/12/09 05:09:56;;;;;;;10.90;4.00;;;2.20;98.00;;;;;;5034430;28;20029;-72
2021/12/09 05:12:22;;;;;;;11.77;4.40;;;2.10;98.00;;;;;;5027673;28;20424;-72
2021/12/09 05:14:49;;;;;;;9.83;3.40;;;2.00;97.90;;;;;;5029064;28;20057;-74
2021/12/09 05:17:18;;;;;;;14.17;4.87;;;2.10;98.00;;;;;;4996711;28;20042;-73
2021/12/09 05:19:45;;;;;;;11.80;3.97;;;2.10;98.10;;;;;;5016636;28;20058;-73
2021/12/09 05:22:12;;;;;;;11.93;4.03;;;2.10;98.10;;;;;;5013017;28;20057;-73
2021/12/09 05:24:37;;;;;;;12.33;4.30;;;2.10;98.20;;;;;;5008616;28;20124;-73
2021/12/09 05:27:04;;;;;;;11.77;4.07;;;2.10;98.20;;;;;;5019024;28;20117;-73
2021/12/09 05:29:37;;;;;;;11.03;4.13;;;2.10;98.20;;;;;;4995870;28;20041;-73
2021/12/09 05:32:13;;;;;;;11.60;3.50;;;2.00;98.20;;;;;;5024679;28;20026;-73
2021/12/09 05:34:45;;;;;;;10.97;3.53;;;2.10;98.20;;;;;;5017633;28;20052;-73
2021/12/09 05:37:18;;;;;;;9.83;3.33;;;2.10;98.10;;;;;;5033814;28;20021;-73
2021/12/09 05:39:44;;;;;;;10.37;3.70;;;2.00;98.10;;;;;;5029319;28;20448;-73
2021/12/09 05:42:12;;;;;;;10.00;2.97;;;2.00;98.10;;;;;;5035545;28;20384;-73
2021/12/09 05:44:38;;;;;;;15.77;3.90;;;2.00;98.10;;;;;;5053705;28;20032;-73
2021/12/09 05:47:08;;;;;;;11.50;3.73;;;2.00;98.10;;;;;;5035903;28;20025;-72
2021/12/09 05:49:36;;;;;;;12.77;4.17;;;1.90;98.10;;;;;;5053670;28;20048;-73
2021/12/09 05:52:04;;;;;;;8.60;2.77;;;2.00;98.10;;;;;;5022976;28;20164;-73
2021/12/09 05:54:30;;;;;;;10.73;3.23;;;2.00;98.10;;;;;;5015725;28;20026;-73
2021/12/09 05:56:56;;;;;;;11.33;3.33;;;1.90;98.10;;;;;;5033052;28;20045;-73
2021/12/09 05:59:22;;;;;;;9.83;3.50;;;1.90;98.20;;;;;;4999379;28;20464;-73
2021/12/09 06:01:48;;;;;;;9.37;2.90;;;1.90;98.20;;;;;;5015742;28;20362;-73
2021/12/09 06:04:14;;;;;;;13.77;3.33;;;1.90;98.30;;;;;;5015970;28;20033;-72
2021/12/09 06:06:40;;;;;;;10.43;3.20;;;1.90;98.30;;;;;;5027701;28;20037;-74
2021/12/09 06:09:09;;;;;;;9.37;2.90;;;1.90;98.30;;;;;;5035236;28;20060;-75
2021/12/09 06:11:35;;;;;;;10.20;3.17;;;1.90;98.30;;;;;;5041015;28;20037;-78
2021/12/09 06:14:01;;;;;;;9.87;2.60;;;1.90;98.30;;;;;;4988726;28;20060;-77
2021/12/09 06:16:27;;;;;;;7.87;3.20;;;1.90;98.30;;;;;;5002651;28;20037;-77
2021/12/09 06:18:54;;;;;;;11.13;3.13;;;1.90;98.30;;;;;;5012014;28;20026;-77
2021/12/09 06:21:22;;;;;;;8.97;2.73;;;1.90;98.40;;;;;;5027223;28;20029;-77
2021/12/09 06:23:48;;;;;;;17.90;2.83;;;1.80;98.40;;;;;;5034494;28;20475;-78
2021/12/09 06:26:14;;;;;;;12.67;3.13;;;1.90;98.40;;;;;;5034123;28;20079;-78
2021/12/09 06:28:40;;;;;;;8.53;2.77;;;1.80;98.40;;;;;;5015927;28;20044;-77
2021/12/09 06:31:06;;;;;;;11.67;3.33;;;1.80;98.50;;;;;;5034037;28;20389;-77
2021/12/09 06:33:32;;;;;;;13.97;3.87;;;1.80;98.40;;;;;;5032795;28;20033;-77
2021/12/09 06:35:59;;;;;;;7.70;2.57;;;2.00;98.50;;;;;;5032299;28;20038;-78
2021/12/09 06:38:25;;;;;;;11.73;3.40;;;1.80;98.40;;;;;;5011044;28;20038;-77
2021/12/09 06:40:51;;;;;;;10.20;2.93;;;1.80;98.40;;;;;;4993671;28;20074;-77
2021/12/09 06:43:17;;;;;;;10.40;2.70;;;1.80;98.60;;;;;;5005607;28;20030;-78
2021/12/09 06:45:43;;;;;;;7.83;2.57;;;1.80;98.60;;;;;;5020855;28;20057;-79
2021/12/09 06:48:09;;;;;;;12.00;3.43;;;1.80;98.60;;;;;;5023891;28;20029;-77
2021/12/09 06:50:35;;;;;;;9.80;2.30;;;1.80;98.60;;;;;;5033253;28;20412;-77
2021/12/09 06:53:01;;;;;;;8.00;2.40;;;1.90;98.60;;;;;;5021957;28;20454;-77
2021/12/09 06:55:27;;;;;;;12.63;3.07;;;1.90;98.60;;;;;;5012232;28;20056;-78
2021/12/09 06:57:52;;;;;;;12.57;2.63;;;1.90;98.50;;;;;;5011789;28;20025;-74
2021/12/09 07:00:22;;;;;;;13.37;3.33;;;1.90;98.50;;;;;;4995723;28;20375;-74
2021/12/09 07:02:48;;;;;;;8.50;2.20;;;1.80;98.50;;;;;;5011619;28;20033;-74
2021/12/09 07:05:17;;;;;;;7.10;2.37;;;1.80;98.50;;;;;;5016555;28;20026;-74
2021/12/09 07:07:43;;;;;;;6.70;2.37;;;1.80;98.50;;;;;;5017411;28;20065;-74
2021/12/09 07:10:11;;;;;;;8.00;2.50;;;1.80;98.60;;;;;;5017093;28;20041;-73
2021/12/09 07:12:38;;;;;;;7.03;2.50;;;1.90;98.60;;;;;;5016899;28;20026;-74
2021/12/09 07:15:05;;;;;;;10.30;3.07;;;1.80;98.60;;;;;;5018479;28;20037;-73
2021/12/09 07:17:31;;;;;;;7.03;2.60;;;1.90;98.60;;;;;;5018241;28;20060;-73
2021/12/09 07:19:57;;;;;;;12.10;2.80;;;1.90;98.60;;;;;;5018277;28;20076;-74
2021/12/09 07:22:23;;;;;;;11.13;3.23;;;1.90;98.60;;;;;;5017968;28;20045;-73
2021/12/09 07:24:48;;;;;;;10.33;2.60;;;1.90;98.60;;;;;;5035225;28;20101;-74
2021/12/09 07:27:14;;;;;;;12.43;2.93;;;1.80;98.60;;;;;;5017766;28;20037;-73
2021/12/09 07:29:40;;;;;;;10.57;2.80;;;1.80;98.60;;;;;;5033210;28;20029;-73
2021/12/09 07:32:06;;;;;;;9.27;2.20;;;1.90;98.70;;;;;;5035897;28;20029;-73
2021/12/09 07:34:31;;;;;;;11.77;2.60;;;1.90;98.70;;;;;;5018254;28;20428;-74
2021/12/09 07:37:02;;;;;;;11.37;2.70;;;1.80;98.60;;;;;;5035913;28;20041;-73
2021/12/09 07:39:28;;;;;;;6.87;3.07;;;1.90;98.70;;;;;;5035952;28;20040;-74
2021/12/09 07:41:54;;;;;;;13.03;3.20;;;1.90;98.70;;;;;;5035927;28;20030;-73
2021/12/09 07:44:20;;;;;;;8.67;2.73;;;1.90;98.70;;;;;;5035665;28;20411;-72
2021/12/09 07:46:48;;;;;;;8.73;3.10;;;1.90;98.70;;;;;;5002186;28;20056;-74
2021/12/09 07:49:14;;;;;;;12.07;3.30;;;1.90;98.80;;;;;;5035921;28;20044;-73
2021/12/09 07:51:40;;;;;;;11.73;3.07;;;1.80;98.80;;;;;;5018213;28;20113;-73
2021/12/09 07:54:06;;;;;;;10.37;3.60;;;1.90;99.00;;;;;;5018209;28;20471;-73
2021/12/09 07:56:32;;;;;;;14.77;3.50;;;2.00;99.00;;;;;;5001907;28;20049;-73
2021/12/09 07:58:57;;;;;;;11.10;2.83;;;2.00;99.00;;;;;;5001982;28;20401;-73
2021/12/09 08:01:23;;;;;;;10.73;3.23;;;2.00;99.00;;;;;;5018061;28;20037;-73
2021/12/09 08:03:49;;;;;;;16.23;3.93;;;2.10;99.10;;;;;;5018282;28;20037;-73
2021/12/09 08:06:15;;;;;;;11.90;3.43;;;2.10;99.20;;;;;;5001855;28;20028;-72
2021/12/09 08:08:41;;;;;;;8.13;2.97;;;2.20;99.30;;;;;;5035537;28;20053;-72
2021/12/09 08:11:07;;;;;;;14.03;3.37;;;2.20;99.30;;;;;;5035608;28;20473;-73
2021/12/09 08:13:33;;;;;;;9.70;3.33;;;2.20;99.20;;;;;;5035309;28;20115;-72
2021/12/09 08:16:00;;;;;;;11.10;3.07;;;2.20;99.20;;;;;;5016702;28;20034;-72
2021/12/09 08:18:27;;;;;;;11.43;3.70;;;2.40;99.30;;;;;;5018321;28;20018;-72
2021/12/09 08:21:01;;;;;;;12.30;3.70;;;2.30;99.30;;;;;;5017612;28;20079;-72
2021/12/09 08:23:28;;;;;;;8.82;2.72;;;2.30;99.30;;;;;;5034005;28;20018;-74
2021/12/09 08:25:57;;;;;;;9.23;3.17;;;2.40;99.40;;;;;;5014227;28;20026;-73
2021/12/09 08:28:23;;;;;;;10.10;3.00;;;2.40;99.40;;;;;;5015056;28;20478;-73
2021/12/09 08:30:50;;;;;;;6.30;2.87;;;2.30;99.40;;;;;;5015000;28;20018;-72
2021/12/09 08:33:20;;;;;;;7.17;3.07;;;2.40;99.40;;;;;;4998028;28;20413;-73
2021/12/09 08:35:46;;;;;;;10.33;3.63;;;2.50;99.40;;;;;;5015486;28;20028;-73
2021/12/09 08:38:12;;;;;;;12.97;3.70;;;2.50;99.50;;;;;;5015429;28;20030;-73
2021/12/09 08:40:38;;;;;;;10.43;4.03;;;2.60;99.60;;;;;;5015361;28;20335;-72
2021/12/09 08:43:05;;;;;;;9.67;4.20;;;2.60;99.70;;;;;;4997693;28;20065;-72
2021/12/09 08:45:31;;;;;;;10.40;3.13;;;2.70;99.80;;;;;;4997415;28;20394;-73
2021/12/09 08:47:57;;;;;;;11.13;3.80;;;2.80;99.80;;;;;;5015325;28;20429;-72
2021/12/09 08:50:25;;;;;;;13.03;3.23;;;2.90;99.90;;;;;;5015153;28;20487;-73
2021/12/09 08:52:52;;;;;;;16.83;4.07;;;3.00;99.80;;;;;;5014937;28;20462;-73
2021/12/09 08:55:19;;;;;;;12.80;3.43;;;3.10;99.70;;;;;;5014825;28;20058;-73
2021/12/09 08:57:46;;;;;;;12.07;3.87;;;3.10;99.70;;;;;;5014987;28;20092;-73
2021/12/09 09:00:14;;;;;;;14.40;3.90;;;3.20;99.60;;;;;;4997392;28;20026;-74
2021/12/09 09:02:43;;;;;;;12.00;4.13;;;3.30;99.60;;;;;;4996982;28;20517;-73
2021/12/09 09:05:11;;;;;;;14.27;3.93;;;3.30;99.50;;;;;;4996937;28;20117;-73
2021/12/09 09:07:56;;;;;;;12.33;4.07;;;3.40;99.40;;;;;;4997531;28;20558;-73
2021/12/09 09:10:24;;;;;;;10.73;3.60;;;3.50;99.40;;;;;;4996891;28;20032;-73
2021/12/09 09:12:51;;;;;;;13.33;3.77;;;3.60;99.40;;;;;;4996537;28;20500;-73
2021/12/09 09:15:21;;;;;;;17.50;4.57;;;3.70;99.10;;;;;;5014730;28;20119;-73
2021/12/09 09:17:48;;;;;;;11.10;4.20;;;3.80;99.00;;;;;;4996912;28;20022;-72
2021/12/09 09:20:16;;;;;;;11.13;3.53;;;3.80;99.00;;;;;;5017018;28;20421;-72
2021/12/09 09:22:42;;;;;;;16.13;4.40;;;3.80;98.80;;;;;;5007861;28;20018;-72
2021/12/09 09:25:11;;;;;;;10.57;3.43;;;3.90;98.70;;;;;;5000244;28;20028;-73
2021/12/09 09:27:37;;;;;;;11.63;3.77;;;3.90;98.70;;;;;;5015974;28;20021;-73
2021/12/09 09:30:06;;;;;;;8.40;3.37;;;3.90;98.50;;;;;;5012568;28;20029;-73
2021/12/09 09:32:31;;;;;;;10.30;4.23;;;3.90;98.50;;;;;;5004312;28;20037;-73
2021/12/09 09:34:57;;;;;;;15.73;4.03;;;4.00;98.40;;;;;;5012088;28;20036;-73
2021/12/09 09:37:23;;;;;;;13.57;4.40;;;4.10;98.50;;;;;;5033642;28;20030;-78
2021/12/09 09:39:49;;;;;;;15.17;4.90;;;4.10;98.40;;;;;;5033907;28;20113;-77
2021/12/09 09:42:32;;;;;;;7.77;3.47;;;4.20;98.60;;;;;;5033703;28;20087;-78
2021/12/09 09:44:58;;;;;;;10.83;3.27;;;4.50;99.00;;;;;;5016011;28;20017;-77
2021/12/09 09:47:29;;;;;;;10.63;3.27;;;4.80;99.20;;;;;;5033656;28;20100;-77
2021/12/09 09:49:57;;;;;;;12.83;2.90;;;5.30;99.90;;;;;;5008538;28;20356;-77
2021/12/09 09:52:23;;;;;;;8.80;2.83;;;5.80;99.90;;;;;;4996350;28;20049;-77
2021/12/09 09:54:51;;;;;;;7.90;2.60;;;6.20;99.80;;;;;;5013623;28;20213;-78
2021/12/09 09:57:16;;;;;;;7.40;3.13;;;6.40;98.50;;;;;;4996800;28;20025;-79
2021/12/09 09:59:42;;;;;;;8.20;2.90;;;6.50;97.50;;;;;;5013608;28;20030;-78
2021/12/09 10:02:10;;;;;;;5.57;2.10;;;6.70;97.50;;;;;;4996021;28;20022;-78
2021/12/09 10:07:03;;;;;;;12.33;2.63;;;7.50;97.50;;;;;;5008920;28;20035;-72
2021/12/09 10:09:29;;;;;;;8.40;2.90;;;7.60;95.90;;;;;;4995932;28;20079;-73
2021/12/09 10:11:55;;;;;;;11.30;2.47;;;7.50;94.20;;;;;;4996745;28;20121;-72
2021/12/09 10:14:24;;;;;;;11.70;3.87;;;7.40;93.20;;;;;;5013413;28;20050;-72
2021/12/09 10:17:10;;;;;;;8.83;3.63;;;7.10;91.80;;;;;;4996452;28;20030;-72
2021/12/09 10:19:40;;;;;;;9.43;3.00;;;6.90;92.20;;;;;;4995946;28;20026;-72
2021/12/09 10:22:09;;;;;;;14.20;4.20;;;6.70;92.00;;;;;;5013854;28;20018;-72
2021/12/09 10:24:36;;;;;;;11.90;3.37;;;6.70;92.00;;;;;;5013628;28;20038;-72
2021/12/09 10:27:03;;;;;;;10.83;3.27;;;6.50;92.20;;;;;;4996122;28;20026;-71
2021/12/09 10:29:33;;;;;;;12.63;4.17;;;6.50;92.60;;;;;;4996168;28;20548;-72
2021/12/09 10:32:04;;;;;;;12.17;4.43;;;6.40;91.80;;;;;;4995840;28;20124;-73
2021/12/09 10:34:39;;;;;;;10.73;4.07;;;6.20;91.80;;;;;;5013512;28;20477;-72
2021/12/09 10:37:23;;;;;;;11.13;4.10;;;6.10;92.20;;;;;;4995845;28;20506;-73
2021/12/09 10:39:57;;;;;;;10.82;3.88;;;6.00;92.60;;;;;;5016351;28;20104;-72
2021/12/09 10:42:24;;;;;;;;;;;5.90;92.60;;;;;;5017451;28;20501;-72
2021/12/09 10:44:51;;;;;;;10.90;3.67;;;5.80;92.70;;;;;;5017579;28;19905;-72
2021/12/09 10:50:36;;;;;;;13.07;5.03;;;5.70;93.10;;;;;;5017473;28;20029;-72
2021/12/09 10:55:52;;;;;;;11.97;4.50;;;5.50;93.40;;;;;;5016837;28;20489;-72
2021/12/09 10:58:21;;;;;;;9.68;3.72;;;5.50;93.60;;;;;;4999526;28;20075;-73
2021/12/09 11:00:52;;;;;;;10.60;4.27;;;5.40;93.70;;;;;;4999386;28;20018;-72
2021/12/09 11:03:26;;;;;;;17.47;5.77;;;5.50;93.90;;;;;;5017056;28;20026;-72
2021/12/09 11:05:54;;;;;;;14.37;5.77;;;5.40;94.10;;;;;;5016943;28;20176;-72
2021/12/09 11:08:24;;;;;;;12.97;5.53;;;5.40;94.20;;;;;;5016151;28;20030;-72
2021/12/09 11:10:58;;;;;;;13.83;6.00;;;5.30;94.30;;;;;;5017054;28;20025;-72
2021/12/09 11:13:24;;;;;;;15.07;5.22;;;5.30;94.50;;;;;;5016481;28;20103;-72
2021/12/09 11:15:55;;;;;;;17.30;6.43;;;5.30;94.60;;;;;;4998389;28;20446;-72
2021/12/09 11:18:27;;;;;;;18.40;7.33;;;5.30;94.80;;;;;;5016803;28;20029;-72
2021/12/09 11:20:53;;;;;;;18.90;7.30;;;5.30;94.90;;;;;;5016463;28;20025;-73
2021/12/09 11:23:27;;;;;;;19.90;7.30;;;5.30;95.00;;;;;;5016366;28;20034;-73
2021/12/09 11:25:55;;;;;;;17.23;7.27;;;5.30;95.10;;;;;;5016290;28;20492;-73
2021/12/09 11:28:20;;;;;;;15.20;8.10;;;5.20;95.10;;;;;;4983064;28;20431;-77
2021/12/09 11:31:12;;;;;;;19.10;8.03;;;5.30;95.20;;;;;;5016354;28;20107;-77
2021/12/09 11:33:41;;;;;;;12.53;7.13;;;5.30;95.30;;;;;;5013238;28;20025;-77
2021/12/09 11:36:14;;;;;;;16.93;8.23;;;5.30;95.40;;;;;;5036364;28;20040;-76
2021/12/09 11:39:20;;;;;;;16.77;7.80;;;5.30;95.50;;;;;;5018171;28;20028;-77
2021/12/09 11:41:47;;;;;;;19.93;8.57;;;5.40;95.60;;;;;;5011761;28;20056;-76
2021/12/09 11:44:13;;;;;;;14.30;7.43;;;5.40;95.60;;;;;;5026412;28;20423;-76
2021/12/09 11:46:41;;;;;;;19.40;8.53;;;5.40;95.60;;;;;;5055776;28;20043;-76
2021/12/09 11:49:09;;;;;;;14.03;7.57;;;5.40;95.70;;;;;;5029862;28;20021;-76
2021/12/09 11:51:35;;;;;;;17.37;7.53;;;5.40;95.70;;;;;;5018595;28;20030;-76
2021/12/09 11:54:04;;;;;;;15.77;8.73;;;5.40;95.80;;;;;;5035714;28;20057;-76
2021/12/09 12:15:28;;;;;;;13.97;8.40;;;5.70;95.70;;;;;;5035313;28;20037;-81
2021/12/09 12:39:31;;;;;;;13.37;7.53;;;5.70;95.60;;;;;;5015709;28;20656;-73
2021/12/09 12:42:06;;;;;;;14.80;7.20;;;5.70;95.60;;;;;;5007776;28;20029;-72
2021/12/09 12:44:33;;;;;;;15.57;7.90;;;5.70;95.70;;;;;;5015130;28;20068;-72
2021/12/09 12:47:13;;;;;;;18.03;8.27;;;5.70;95.70;;;;;;4997913;28;20493;-72
2021/12/09 12:49:46;;;;;;;13.53;7.10;;;5.60;95.60;;;;;;4983371;28;20038;-72
2021/12/09 12:52:26;;;;;;;14.23;7.57;;;5.60;96.00;;;;;;4983200;28;20030;-72
2021/12/09 12:55:11;;;;;;;12.23;6.87;;;5.70;95.80;;;;;;5014723;28;20036;-71
2021/12/09 12:57:43;;;;;;;;;;;5.70;95.80;;;;;;5008875;28;20040;-72
2021/12/09 13:00:15;;;;;;;16.20;8.33;;;5.70;95.80;;;;;;5034633;28;19905;-72
2021/12/09 13:05:46;;;;;;;19.73;9.03;;;5.70;95.80;;;;;;5017590;28;20022;-72
2021/12/09 13:10:48;;;;;;;14.93;8.47;;;5.70;95.80;;;;;;5014237;28;20026;-73
2021/12/09 13:13:59;;;;;;;12.43;7.10;;;5.80;95.80;;;;;;4996402;28;20029;-73
2021/12/09 13:19:08;;;;;;;13.20;6.78;;;5.70;95.70;;;;;;5032416;28;20037;-73
2021/12/09 13:21:34;;;;;;;14.03;7.97;;;5.70;95.80;;;;;;5032447;28;20018;-73
2021/12/09 13:24:44;;;;;;;13.30;8.70;;;5.70;95.70;;;;;;5015220;28;20022;-73
2021/12/09 13:27:38;;;;;;;14.77;8.90;;;5.80;95.80;;;;;;5015571;28;20025;-72
2021/12/09 13:46:30;;;;;;;13.80;8.00;;;5.70;96.00;;;;;;4978375;28;20037;-72
2021/12/09 13:49:21;;;;;;;14.83;9.33;;;5.70;96.00;;;;;;4996220;28;20032;-72
2021/12/09 13:54:27;;;;;;;16.80;8.40;;;5.70;96.10;;;;;;5013562;28;20120;-73
2021/12/09 13:56:59;;;;;;;13.23;8.07;;;5.70;96.10;;;;;;5012935;28;20053;-73
2021/12/09 13:59:27;;;;;;;12.27;8.07;;;5.80;96.10;;;;;;5019229;28;20361;-73
2021/12/09 14:01:55;;;;;;;15.80;8.87;;;5.70;96.10;;;;;;5015169;28;20034;-73
2021/12/09 14:04:23;;;;;;;14.53;9.17;;;5.70;96.20;;;;;;5006286;28;20022;-73
2021/12/09 14:07:03;;;;;;;16.60;9.90;;;5.80;96.30;;;;;;4996804;28;20065;-73
2021/12/09 14:09:31;;;;;;;16.87;10.20;;;5.80;96.20;;;;;;5015626;28;20037;-73
2021/12/09 14:11:58;;;;;;;16.13;9.43;;;5.80;96.20;;;;;;5032522;28;20146;-73